Kezdőlap
METAR-TAF:

METAR-TAF

Repülőterek :

Harbin, Kína

földrajzi szélesség: 45-45N, földrajzi hosszúság: 126-46E, magasság: 143 m

Jelenlegi meteorológiai megfigyelések

A jelentés 29 perccel ezelõtt készült, 19:00 UTC
Dél-délnyugati szél 4 kt
Hőmérséklet -1°C
Páratartalom 59%
Légköri nyomás 1002 hPa
Látótávolság 10 km, vagy több
felhőtlen 1500 m magasságban, és nincs gomolyfelhõ

METAR: ZYHB 241900Z 20002MPS CAVOK M01/M08 Q1002 NOSIG

Idő: 03:29 (19:29 UTC)

Előrejelzés

A jelentés 3 órával és 59 perccel ezelõtt készült, 15:30 UTC
Az előrejelzés 24-én 18 óra UTC és 25-én 18 óra UTC között érvényes
Délnyugati szél 8 kt
Látótávolság: 6000 m
24-én 21 óra UTC és 24-én 23 óra UTC között fokozatosan kialakuló
Nyugati szél 17 kt széllökések: 29 kt

TAF: ZYHB 241530Z 2418/2518 22004MPS 6000 NSC TX08/2506Z TNM04/21Z BECMG 2421/2423 28009G15MPS

Meteorológiai megfigyelések és előrejelzések több, mint 4000 repülőtéren (METAR és TAF jelentéseket).

A térképen piros és sárga pontok jelzik az elérhető meteorológiai állomásokat.

Mozgassa az egeret a pont fölött, hogy megjelenjen az állomás neve.

Azután kattintson az időjárási megfigyelések és előrejelzések megtekintéséhez.

A térkép megváltoztatása: kattintson a fekete keresztel jelölt zöld gombra ráközelítéshez, a vonallal jelölt zöld gombra távolításhoz, vagy a zöld nyilakra a szomszédos térképek eléréséhez.


METAR-TAF: